Time;durP1;ratioP1;P1;durP2;ratioP2;P2;SDS_P1;SDS_P2;PMS_P1;PMS_P2;Temp;Humidity;BMP_temperature;BMP_pressure;BME280_temperature;BME280_humidity;BME280_pressure;Samples;Min_cycle;Max_cycle;Signal;HPM_P1;HPM_P2
2023/06/21 00:01:38;;;;;;;12.07;8.00;;;;;;;25.39;54.25;99175.06;4942288;28;20459;-78
2023/06/21 00:04:07;;;;;;;8.60;7.70;;;;;;;25.36;54.23;99188.91;4934727;28;20473;-78
2023/06/21 00:06:34;;;;;;;10.00;8.20;;;;;;;25.31;54.10;99191.38;4939425;28;20792;-78
2023/06/21 00:09:03;;;;;;;8.30;6.33;;;;;;;25.29;54.08;99193.44;4933818;28;22039;-78
2023/06/21 00:11:30;;;;;;;8.20;7.40;;;;;;;25.26;54.41;99195.72;4938803;28;20559;-78
2023/06/21 00:13:56;;;;;;;8.63;7.83;;;;;;;25.20;54.35;99204.59;4941153;28;20492;-78
2023/06/21 00:16:22;;;;;;;10.00;7.30;;;;;;;25.16;54.63;99212.22;4942106;28;20475;-78
2023/06/21 00:18:47;;;;;;;8.73;7.47;;;;;;;25.08;54.65;99223.09;4946613;28;20215;-78
2023/06/21 00:21:13;;;;;;;13.23;7.30;;;;;;;24.99;55.00;99230.53;4945618;28;20783;-78
2023/06/21 00:23:42;;;;;;;9.73;7.93;;;;;;;24.85;55.64;99240.38;4940847;28;20425;-78
2023/06/21 00:26:08;;;;;;;8.27;7.40;;;;;;;24.71;56.15;99241.34;4941174;28;20561;-78
2023/06/21 00:28:33;;;;;;;9.60;7.60;;;;;;;24.59;56.46;99245.59;4940256;28;20610;-78
2023/06/21 00:30:58;;;;;;;9.70;7.63;;;;;;;24.53;56.88;99241.03;4927408;28;20254;-78
2023/06/21 00:33:24;;;;;;;10.07;8.97;;;;;;;24.49;57.15;99251.31;4922968;28;20618;-78
2023/06/21 00:35:51;;;;;;;11.90;8.50;;;;;;;24.38;57.38;99249.97;4951521;28;20204;-78
2023/06/21 00:38:16;;;;;;;10.90;7.90;;;;;;;24.33;57.80;99263.16;4919849;29;20467;-78
2023/06/21 00:40:42;;;;;;;10.03;8.30;;;;;;;24.30;57.77;99252.78;4946935;28;20552;-78
2023/06/21 00:43:07;;;;;;;9.03;8.10;;;;;;;24.30;57.90;99263.53;4944941;28;20212;-78
2023/06/21 00:45:38;;;;;;;8.03;7.23;;;;;;;24.31;57.79;99265.22;4942262;28;20207;-78
2023/06/21 00:48:04;;;;;;;11.60;8.77;;;;;;;24.29;58.03;99267.25;4937193;28;20201;-78
2023/06/21 00:50:29;;;;;;;8.87;7.97;;;;;;;24.31;58.02;99280.50;4913744;28;20460;-78
2023/06/21 00:52:55;;;;;;;7.70;6.90;;;;;;;24.32;57.78;99274.91;4956383;23;20541;-79
2023/06/21 00:55:23;;;;;;;11.70;7.33;;;;;;;24.34;57.96;99280.91;4917807;29;20590;-78
2023/06/21 00:57:49;;;;;;;10.20;7.70;;;;;;;24.37;57.70;99291.25;4921703;29;20477;-79
2023/06/21 01:00:20;;;;;;;11.53;8.90;;;;;;;24.43;57.80;99295.84;4924004;29;20501;-79
2023/06/21 01:02:46;;;;;;;9.03;8.03;;;;;;;24.46;57.61;99294.66;4922464;29;20463;-79
2023/06/21 01:05:12;;;;;;;8.73;7.83;;;;;;;24.38;57.90;99286.72;4923365;29;20475;-79
2023/06/21 01:08:02;;;;;;;9.47;7.53;;;;;;;24.30;57.92;99290.38;4927777;29;20557;-79
2023/06/21 01:10:50;;;;;;;11.80;8.90;;;;;;;24.23;58.08;99294.88;4925043;29;20482;-79
2023/06/21 01:13:53;;;;;;;9.50;7.87;;;;;;;24.19;58.19;99304.31;4917741;29;20924;-78
2023/06/21 01:16:23;;;;;;;8.37;7.43;;;;;;;24.15;58.29;99314.63;4905436;29;21136;-78
2023/06/21 01:18:51;;;;;;;9.20;7.27;;;;;;;24.16;58.06;99312.75;4918708;29;20462;-78
2023/06/21 01:21:22;;;;;;;11.37;8.63;;;;;;;24.17;58.19;99311.72;4919984;29;20833;-78
2023/06/21 01:24:22;;;;;;;8.80;7.23;;;;;;;24.16;58.33;99318.13;4926960;29;20964;-79
2023/06/21 01:27:20;;;;;;;11.07;8.47;;;;;;;24.12;58.41;99338.34;4929369;29;20506;-78
2023/06/21 01:29:49;;;;;;;9.40;8.23;;;;;;;24.02;58.77;99344.00;4901392;29;20440;-78
2023/06/21 01:32:17;;;;;;;8.43;7.30;;;;;;;23.99;58.82;99342.53;4931367;29;20462;-79
2023/06/21 01:34:43;;;;;;;11.32;7.47;;;;;;;23.94;58.98;99338.75;4931393;29;20361;-79
2023/06/21 01:37:12;;;;;;;11.00;8.77;;;;;;;23.89;58.85;99358.09;4915274;29;20199;-78
2023/06/21 01:39:47;;;;;;;14.43;10.30;;;;;;;23.89;59.15;99359.97;4925628;29;20668;-79
2023/06/21 01:42:17;;;;;;;9.67;8.67;;;;;;;23.90;59.11;99348.19;4915120;29;20495;-78
2023/06/21 01:44:44;;;;;;;13.37;9.43;;;;;;;23.91;59.25;99350.72;4936838;28;20513;-77
2023/06/21 01:47:10;;;;;;;9.57;8.33;;;;;;;23.93;59.51;99354.03;4921051;29;20452;-78
2023/06/21 01:49:37;;;;;;;10.53;8.40;;;;;;;23.89;59.56;99341.19;4930836;29;20209;-78
2023/06/21 01:52:04;;;;;;;9.20;8.30;;;;;;;23.79;60.28;99354.91;4928087;29;20978;-78
2023/06/21 01:54:31;;;;;;;9.47;8.50;;;;;;;23.72;60.62;99352.16;4930241;29;20491;-78
2023/06/21 01:57:00;;;;;;;9.53;8.47;;;;;;;23.75;60.86;99350.94;4930624;29;20631;-78
2023/06/21 01:59:27;;;;;;;12.07;8.90;;;;;;;23.74;60.65;99357.34;4911959;29;20445;-79
2023/06/21 02:01:54;;;;;;;9.77;8.10;;;;;;;23.73;61.11;99363.69;4919413;29;20457;-78
2023/06/21 02:04:21;;;;;;;10.07;8.10;;;;;;;;;;4909793;29;20487;-80
2023/06/21 02:06:48;;;;;;;12.30;9.60;;;;;;;23.80;61.87;99362.75;4935049;29;20920;-79
2023/06/21 02:09:14;;;;;;;12.67;8.63;;;;;;;23.81;62.00;99367.09;4934019;29;20205;-78
2023/06/21 02:11:40;;;;;;;9.43;8.43;;;;;;;23.83;61.75;99362.38;4911810;29;20897;-78
2023/06/21 02:14:06;;;;;;;11.27;9.37;;;;;;;23.78;62.02;99366.66;4922449;29;20693;-78
2023/06/21 02:16:32;;;;;;;14.53;8.67;;;;;;;23.67;62.36;99361.75;4924994;29;20662;-78
2023/06/21 02:18:59;;;;;;;11.80;9.40;;;;;;;23.59;62.69;99368.88;4927234;29;20198;-78
2023/06/21 02:21:24;;;;;;;12.43;9.10;;;;;;;23.58;62.81;99390.53;4927588;29;21040;-78
2023/06/21 02:23:50;;;;;;;15.70;8.50;;;;;;;23.58;62.56;99399.41;4925244;29;20212;-77
2023/06/21 02:26:17;;;;;;;11.97;7.90;;;;;;;23.57;62.56;99408.47;4928217;29;20209;-78
2023/06/21 02:28:43;;;;;;;17.53;12.23;;;;;;;23.49;63.22;99421.13;4925681;29;20497;-78
2023/06/21 02:31:08;;;;;;;12.13;8.90;;;;;;;23.37;63.24;99426.94;4926364;29;20454;-78
2023/06/21 02:33:34;;;;;;;16.20;9.70;;;;;;;23.25;63.62;99444.50;4926660;29;20223;-79
2023/06/21 02:35:59;;;;;;;12.20;10.10;;;;;;;23.21;63.93;99432.47;4927638;29;20437;-78
2023/06/21 02:38:26;;;;;;;15.20;9.13;;;;;;;23.18;64.06;99431.00;4928667;29;20210;-78
2023/06/21 02:40:52;;;;;;;14.73;10.00;;;;;;;23.17;64.02;99440.06;4928428;29;20468;-78
2023/06/21 02:43:17;;;;;;;11.83;9.43;;;;;;;23.18;64.37;99436.38;4910155;29;20223;-77
2023/06/21 02:45:43;;;;;;;12.03;8.90;;;;;;;23.19;63.71;99437.19;4923762;29;20644;-78
2023/06/21 02:48:08;;;;;;;11.60;10.13;;;;;;;23.21;63.65;99431.66;4907056;29;20279;-78
2023/06/21 02:50:35;;;;;;;13.43;11.20;;;;;;;23.26;63.84;99431.94;4926991;29;20203;-78
2023/06/21 02:53:01;;;;;;;10.67;9.40;;;;;;;23.30;63.46;99419.81;4910080;29;20480;-78
2023/06/21 02:55:26;;;;;;;13.87;8.90;;;;;;;23.29;63.58;99423.53;4921757;29;20619;-78
2023/06/21 02:57:52;;;;;;;10.60;8.90;;;;;;;23.28;63.35;99429.91;4927616;29;20454;-78
2023/06/21 03:00:22;;;;;;;14.60;9.40;;;;;;;23.27;63.46;99438.97;4921357;29;20273;-79
2023/06/21 03:02:47;;;;;;;11.60;9.80;;;;;;;23.26;64.03;99434.63;4924432;29;20191;-78
2023/06/21 03:05:13;;;;;;;14.03;10.00;;;;;;;23.26;63.87;99442.66;4917899;29;20469;-78
2023/06/21 03:07:43;;;;;;;13.83;10.13;;;;;;;23.27;63.66;99436.28;4930826;29;20203;-78
2023/06/21 03:10:13;;;;;;;11.67;10.30;;;;;;;23.28;63.89;99446.81;4909114;29;20210;-78
2023/06/21 03:12:43;;;;;;;10.43;9.13;;;;;;;23.22;64.23;99455.56;4917066;28;20480;-78
2023/06/21 03:15:10;;;;;;;10.87;9.20;;;;;;;23.20;64.25;99454.94;4909525;29;20496;-78
2023/06/21 03:17:36;;;;;;;13.37;11.10;;;;;;;23.21;64.19;99445.06;4908577;29;20450;-78
2023/06/21 03:20:08;;;;;;;14.30;11.83;;;;;;;23.18;64.39;99447.06;4917044;29;20465;-78
2023/06/21 03:22:34;;;;;;;13.70;10.17;;;;;;;23.16;64.47;99449.09;4908653;29;20441;-78
2023/06/21 03:24:59;;;;;;;12.50;9.90;;;;;;;23.14;64.51;99447.63;4927723;29;20450;-78
2023/06/21 03:27:27;;;;;;;14.33;10.73;;;;;;;23.11;64.74;99442.63;4914248;29;20883;-78
2023/06/21 03:29:52;;;;;;;13.57;11.10;;;;;;;23.02;65.29;99436.53;4915773;29;20449;-79
2023/06/21 03:32:18;;;;;;;15.90;9.60;;;;;;;22.87;65.60;99443.66;4909879;29;20806;-78
2023/06/21 03:34:43;;;;;;;11.07;9.90;;;;;;;22.75;66.02;99443.25;4931914;29;20196;-78
2023/06/21 03:37:09;;;;;;;12.30;10.60;;;;;;;22.73;66.06;99448.78;4913244;29;20206;-78
2023/06/21 03:39:34;;;;;;;15.10;11.37;;;;;;;22.73;66.01;99435.41;4905649;29;20704;-79
2023/06/21 03:42:00;;;;;;;14.43;10.23;;;;;;;22.72;65.72;99447.13;4927877;29;20216;-78
2023/06/21 03:44:26;;;;;;;10.50;9.40;;;;;;;22.72;65.48;99451.66;4927624;29;20238;-78
2023/06/21 03:46:51;;;;;;;13.27;9.70;;;;;;;22.78;65.31;99463.50;4925423;29;20215;-78
2023/06/21 03:49:17;;;;;;;12.70;10.90;;;;;;;22.84;65.44;99462.78;4911899;29;20210;-79
2023/06/21 03:51:43;;;;;;;15.80;14.10;;;;;;;22.90;65.09;99459.34;4928475;29;20749;-78
2023/06/21 03:54:09;;;;;;;12.43;11.17;;;;;;;22.93;64.87;99461.72;4915519;29;20481;-78
2023/06/21 03:56:34;;;;;;;11.70;10.50;;;;;;;22.94;64.70;99482.09;4912788;29;20896;-77
2023/06/21 03:59:00;;;;;;;14.87;9.90;;;;;;;22.97;64.61;99477.25;4913025;29;20234;-79
2023/06/21 04:01:25;;;;;;;15.13;10.03;;;;;;;23.00;64.42;99472.53;4911574;29;20225;-79
2023/06/21 04:03:51;;;;;;;18.73;12.00;;;;;;;22.92;65.04;99468.88;4927663;29;20588;-79
2023/06/21 04:06:16;;;;;;;12.43;10.37;;;;;;;22.89;65.19;99450.50;4909733;29;20223;-78
2023/06/21 04:08:42;;;;;;;11.87;10.20;;;;;;;22.85;65.59;99438.50;4911406;29;20301;-79
2023/06/21 04:11:07;;;;;;;16.80;11.00;;;;;;;22.80;65.96;99432.84;4921333;29;20214;-78
2023/06/21 04:13:32;;;;;;;13.00;10.60;;;;;;;22.78;66.20;99445.56;4907382;29;20708;-79
2023/06/21 04:15:58;;;;;;;12.47;10.33;;;;;;;22.79;66.63;99449.09;4915995;29;20209;-79
2023/06/21 04:18:23;;;;;;;13.67;11.90;;;;;;;22.81;66.82;99442.53;4930072;29;20355;-78
2023/06/21 04:20:49;;;;;;;14.63;11.80;;;;;;;22.80;67.06;99459.63;4929005;29;20205;-78
2023/06/21 04:23:15;;;;;;;15.07;10.83;;;;;;;22.79;67.02;99463.34;4923913;28;20541;-78
2023/06/21 04:25:41;;;;;;;15.40;11.50;;;;;;;22.82;67.40;99457.59;4910779;29;20606;-79
2023/06/21 04:28:06;;;;;;;11.43;10.23;;;;;;;22.85;67.26;99446.53;4922210;28;20543;-81
2023/06/21 04:30:34;;;;;;;13.13;10.57;;;;;;;22.86;67.35;99440.16;4908782;29;20200;-79
2023/06/21 04:33:00;;;;;;;14.03;10.30;;;;;;;22.89;67.42;99436.28;4927576;29;20213;-79
2023/06/21 04:35:25;;;;;;;12.50;11.30;;;;;;;22.90;67.59;99441.47;4930767;29;20737;-80
2023/06/21 04:37:50;;;;;;;13.73;11.47;;;;;;;22.93;67.36;99438.41;4927060;29;20204;-78
2023/06/21 04:40:18;;;;;;;13.23;11.27;;;;;;;22.99;67.49;99441.44;4927976;29;20206;-79
2023/06/21 04:42:46;;;;;;;15.33;11.53;;;;;;;23.04;67.32;99439.88;4931972;29;20234;-79
2023/06/21 04:45:14;;;;;;;14.00;11.37;;;;;;;23.07;67.38;99431.47;4922018;29;20533;-79
2023/06/21 04:47:46;;;;;;;16.70;12.07;;;;;;;23.03;67.22;99432.81;4925966;29;20472;-79
2023/06/21 04:50:12;;;;;;;13.20;11.60;;;;;;;23.02;67.68;99431.16;4926493;29;20465;-79
2023/06/21 04:52:37;;;;;;;11.73;9.93;;;;;;;23.07;67.48;99436.81;4928637;29;20476;-78
2023/06/21 04:55:07;;;;;;;16.13;12.60;;;;;;;23.16;67.46;99446.41;4925786;29;20217;-80
2023/06/21 04:57:33;;;;;;;14.90;11.90;;;;;;;23.27;67.15;99445.13;4933260;29;20211;-80
2023/06/21 05:00:02;;;;;;;13.73;11.20;;;;;;;23.45;66.65;99450.16;4927848;29;20459;-78
2023/06/21 05:02:28;;;;;;;17.47;11.30;;;;;;;23.67;66.14;99452.91;4924645;29;20937;-80
2023/06/21 05:04:53;;;;;;;11.63;10.43;;;;;;;23.91;65.20;99447.28;4920681;28;20462;-78
2023/06/21 05:07:18;;;;;;;10.80;9.63;;;;;;;24.14;64.68;99451.66;4919695;29;20672;-78
2023/06/21 05:09:44;;;;;;;13.00;11.60;;;;;;;24.25;64.03;99456.56;4923666;29;20206;-77
2023/06/21 05:12:09;;;;;;;18.20;12.30;;;;;;;24.31;64.09;99460.34;4922183;29;20221;-77
2023/06/21 05:14:35;;;;;;;12.70;11.33;;;;;;;24.46;63.89;99472.69;4919128;28;20230;-81
2023/06/21 05:17:00;;;;;;;11.90;10.67;;;;;;;24.67;63.46;99481.78;4922681;29;20285;-78
2023/06/21 05:19:26;;;;;;;14.07;11.17;;;;;;;24.89;62.68;99478.06;4921505;29;20219;-81
2023/06/21 05:21:51;;;;;;;15.93;10.93;;;;;;;25.04;62.26;99488.75;4930301;29;20226;-81
2023/06/21 05:24:17;;;;;;;14.07;11.30;;;;;;;25.14;62.16;99481.19;4930284;28;20223;-78
2023/06/21 05:26:44;;;;;;;12.50;11.03;;;;;;;25.12;61.95;99488.59;4921883;29;20668;-78
2023/06/21 05:29:13;;;;;;;14.60;11.13;;;;;;;25.12;62.02;99495.84;4923030;29;20208;-78
2023/06/21 05:31:43;;;;;;;18.00;11.93;;;;;;;25.09;62.34;99501.59;4907291;29;20883;-78
2023/06/21 05:34:09;;;;;;;13.47;11.50;;;;;;;25.05;62.38;99503.81;4926653;29;20505;-79
2023/06/21 05:36:34;;;;;;;13.10;11.23;;;;;;;25.02;62.75;99504.22;4921087;29;20637;-82
2023/06/21 05:39:00;;;;;;;14.70;11.20;;;;;;;25.04;62.44;99512.94;4921668;29;20543;-79
2023/06/21 05:41:25;;;;;;;15.77;12.20;;;;;;;25.14;62.16;99515.25;4920911;29;20199;-78
2023/06/21 05:43:50;;;;;;;15.40;12.87;;;;;;;25.23;61.92;99518.69;4925925;29;20295;-78
2023/06/21 05:46:16;;;;;;;13.50;12.03;;;;;;;25.28;61.83;99518.94;4919602;29;20690;-80
2023/06/21 05:48:41;;;;;;;15.33;13.50;;;;;;;25.26;61.64;99526.38;4922515;29;20198;-80
2023/06/21 05:51:06;;;;;;;16.37;11.50;;;;;;;25.24;61.84;99523.84;4924982;29;20787;-81
2023/06/21 05:53:32;;;;;;;17.23;12.07;;;;;;;25.26;61.86;99524.50;4923538;29;20329;-79
2023/06/21 05:55:58;;;;;;;19.00;13.50;;;;;;;25.30;61.81;99519.56;4928214;29;20659;-80
2023/06/21 05:58:23;;;;;;;14.33;12.60;;;;;;;25.35;61.63;99507.19;4920643;29;20679;-79
2023/06/21 06:00:49;;;;;;;15.10;12.60;;;;;;;25.43;61.17;99503.53;4916970;29;20997;-81
2023/06/21 06:03:15;;;;;;;14.37;12.10;;;;;;;25.66;60.86;99508.66;4923317;29;20209;-81
2023/06/21 06:05:40;;;;;;;16.00;11.13;;;;;;;25.92;59.79;99520.59;4920527;29;20457;-79
2023/06/21 06:08:06;;;;;;;12.70;11.37;;;;;;;26.00;59.24;99528.50;4927255;29;20564;-81
2023/06/21 06:10:31;;;;;;;12.83;11.50;;;;;;;26.09;58.92;99540.78;4923250;29;20722;-78
2023/06/21 06:12:56;;;;;;;19.17;11.90;;;;;;;26.26;58.72;99534.00;4922097;29;20339;-79
2023/06/21 06:15:22;;;;;;;14.60;13.03;;;;;;;26.47;57.97;99534.94;4923782;29;20691;-79
2023/06/21 06:17:47;;;;;;;13.63;11.90;;;;;;;26.61;57.99;99531.25;4918348;29;20232;-80
2023/06/21 06:20:13;;;;;;;18.03;12.33;;;;;;;26.61;57.93;99542.03;4927551;29;20214;-80
2023/06/21 06:22:39;;;;;;;13.07;10.83;;;;;;;26.66;57.77;99534.19;4921587;29;20206;-79
2023/06/21 06:25:05;;;;;;;14.70;12.33;;;;;;;27.07;57.02;99529.66;4921967;29;20190;-80
2023/06/21 06:27:31;;;;;;;12.63;11.23;;;;;;;27.50;55.90;99532.78;4921173;29;20810;-80
2023/06/21 06:29:56;;;;;;;14.17;11.90;;;;;;;27.93;54.79;99535.00;4918870;29;20746;-79
2023/06/21 06:32:22;;;;;;;15.00;12.30;;;;;;;28.37;53.80;99530.69;4921471;29;20203;-79
2023/06/21 06:34:48;;;;;;;14.20;11.90;;;;;;;28.75;52.49;99542.56;4923373;28;20731;-79
2023/06/21 06:37:13;;;;;;;16.63;11.83;;;;;;;28.92;51.94;99545.56;4918654;29;20665;-79
2023/06/21 06:39:39;;;;;;;14.73;12.80;;;;;;;28.90;51.76;99549.31;4914817;29;20198;-81
2023/06/21 06:42:04;;;;;;;15.17;11.70;;;;;;;28.72;52.32;99560.03;4922047;29;20567;-81
2023/06/21 06:44:30;;;;;;;14.03;12.20;;;;;;;28.36;53.23;99577.66;4923647;29;20414;-79
2023/06/21 06:46:55;;;;;;;14.70;12.50;;;;;;;27.87;54.22;99589.84;4923600;29;20311;-81
2023/06/21 06:49:21;;;;;;;13.47;12.03;;;;;;;27.41;55.36;99606.03;4919437;29;20493;-79
2023/06/21 06:51:46;;;;;;;11.80;10.63;;;;;;;27.04;55.93;99625.28;4921898;29;21101;-78
2023/06/21 06:54:11;;;;;;;13.47;11.63;;;;;;;26.77;57.12;99634.31;4926221;29;20312;-78
2023/06/21 06:56:37;;;;;;;15.60;12.97;;;;;;;26.54;57.69;99654.31;4912464;29;20225;-77
2023/06/21 06:59:03;;;;;;;13.20;10.77;;;;;;;26.34;58.80;99661.44;4928991;29;20226;-77
2023/06/21 07:01:28;;;;;;;14.20;12.20;;;;;;;26.11;59.52;99673.31;4921551;29;20628;-78
2023/06/21 07:03:54;;;;;;;13.83;11.60;;;;;;;25.86;60.01;99683.69;4927980;29;20215;-78
2023/06/21 07:06:20;;;;;;;15.03;12.93;;;;;;;25.61;61.12;99684.06;4922492;29;20282;-78
2023/06/21 07:08:46;;;;;;;15.00;11.77;;;;;;;25.39;61.96;99698.56;4921194;29;20738;-78
2023/06/21 07:11:12;;;;;;;15.67;12.40;;;;;;;25.24;62.53;99713.91;4920452;29;20207;-77
2023/06/21 07:13:38;;;;;;;15.20;12.50;;;;;;;25.11;62.98;99749.50;4926815;28;20451;-78
2023/06/21 07:16:03;;;;;;;16.93;14.33;;;;;;;24.98;63.61;99781.56;4924919;29;20207;-78
2023/06/21 07:18:29;;;;;;;15.23;13.73;;;;;;;24.81;64.99;99800.56;4909781;29;20202;-78
2023/06/21 07:20:55;;;;;;;13.60;11.33;;;;;;;24.61;65.81;99812.91;4930260;29;20191;-79
2023/06/21 07:23:20;;;;;;;12.47;11.07;;;;;;;24.39;66.66;99803.84;4921829;29;20681;-79
2023/06/21 07:25:45;;;;;;;12.63;11.37;;;;;;;24.18;67.12;99799.19;4921139;29;20432;-79
2023/06/21 07:28:11;;;;;;;19.67;12.20;;;;;;;23.98;67.83;99769.31;4931182;29;20213;-80
2023/06/21 07:30:37;;;;;;;15.63;13.27;;;;;;;23.78;68.42;99732.25;4923009;29;20283;-79
2023/06/21 07:33:04;;;;;;;14.47;12.23;;;;;;;23.64;68.83;99717.75;4923117;29;20208;-79
2023/06/21 07:35:29;;;;;;;14.63;12.70;;;;;;;23.56;69.08;99680.28;4926712;29;20425;-79
2023/06/21 07:37:55;;;;;;;16.53;14.23;;;;;;;23.46;69.49;99634.09;4925157;29;20465;-79
2023/06/21 07:40:20;;;;;;;20.60;14.70;;;;;;;23.32;70.45;99592.84;4923798;29;20217;-79
2023/06/21 07:42:46;;;;;;;17.97;14.73;;;;;;;23.15;71.59;99602.84;4915582;29;21117;-80
2023/06/21 07:45:11;;;;;;;21.70;16.33;;;;;;;23.02;71.93;99597.25;4924655;29;20218;-80
2023/06/21 07:47:37;;;;;;;16.70;13.23;;;;;;;22.85;72.90;99601.03;4923935;29;20434;-81
2023/06/21 07:50:04;;;;;;;15.83;13.47;;;;;;;22.71;73.07;99563.28;4922677;29;20225;-80
2023/06/21 07:52:30;;;;;;;19.00;14.03;;;;;;;22.67;73.49;99540.53;4918616;29;20210;-80
2023/06/21 07:54:56;;;;;;;15.20;11.87;;;;;;;22.63;73.56;99523.19;4927024;29;20492;-80
2023/06/21 07:57:21;;;;;;;16.00;11.93;;;;;;;22.64;73.47;99511.44;4920710;29;20473;-80
2023/06/21 07:59:47;;;;;;;15.53;13.80;;;;;;;22.68;73.58;99520.81;4926545;29;20214;-80
2023/06/21 08:02:17;;;;;;;15.70;12.47;;;;;;;22.73;73.22;99496.16;4925974;29;20229;-80
2023/06/21 08:04:45;;;;;;;13.80;12.47;;;;;;;22.74;72.98;99442.44;4919578;28;20634;-79
2023/06/21 08:07:11;;;;;;;16.10;12.53;;;;;;;22.65;73.49;99426.59;4925026;29;20526;-81
2023/06/21 08:09:36;;;;;;;15.07;10.60;;;;;;;22.55;73.93;99413.50;4910610;29;20489;-80
2023/06/21 08:12:02;;;;;;;13.63;9.73;;;;;;;22.48;74.09;99409.84;4922241;29;20213;-80
2023/06/21 08:14:27;;;;;;;13.90;10.50;;;;;;;22.46;74.17;99430.59;4928314;29;20648;-80
2023/06/21 08:16:53;;;;;;;14.33;10.27;;;;;;;22.48;73.95;99434.78;4924699;29;20203;-81
2023/06/21 08:19:18;;;;;;;10.37;8.20;;;;;;;22.49;74.00;99468.56;4929468;29;20765;-80
2023/06/21 08:21:44;;;;;;;11.37;8.20;;;;;;;22.51;73.68;99482.59;4929890;29;20208;-80
2023/06/21 08:24:10;;;;;;;9.00;7.60;;;;;;;22.57;73.90;99536.44;4906125;29;20652;-81
2023/06/21 08:26:36;;;;;;;12.40;8.83;;;;;;;22.68;73.60;99557.44;4922380;29;20237;-81
2023/06/21 08:29:01;;;;;;;11.90;10.70;;;;;;;22.75;73.36;99553.88;4904272;29;20537;-80
2023/06/21 08:31:27;;;;;;;10.37;8.60;;;;;;;22.86;73.37;99552.63;4908872;29;20206;-80
2023/06/21 08:33:52;;;;;;;11.37;7.97;;;;;;;22.94;73.31;99549.91;4922994;28;20206;-81
2023/06/21 08:36:17;;;;;;;11.23;8.97;;;;;;;23.02;73.29;99554.41;4911189;29;20530;-80
2023/06/21 08:38:43;;;;;;;10.23;9.23;;;;;;;23.10;73.61;99573.09;4923339;29;20290;-80
2023/06/21 08:41:09;;;;;;;10.27;8.60;;;;;;;23.22;73.21;99596.78;4922415;29;20588;-80
2023/06/21 08:43:34;;;;;;;9.63;7.67;;;;;;;23.30;73.18;99596.72;4925651;29;20601;-80
2023/06/21 08:46:03;;;;;;;13.50;10.03;;;;;;;23.42;72.61;99608.69;4913078;29;20473;-81
2023/06/21 08:48:32;;;;;;;13.03;9.63;;;;;;;23.55;72.16;99621.47;4927923;29;20211;-80
2023/06/21 08:50:59;;;;;;;10.23;8.10;;;;;;;23.68;71.80;99604.75;4930110;29;21186;-80
2023/06/21 08:53:43;;;;;;;13.70;9.17;;;;;;;23.83;71.57;99600.28;4932237;29;20478;-80
2023/06/21 08:56:11;;;;;;;11.40;8.63;;;;;;;24.02;71.01;99618.50;4925172;29;20475;-81
2023/06/21 08:58:46;;;;;;;9.27;7.23;;;;;;;24.28;70.29;99615.38;4938130;29;20449;-80
2023/06/21 09:01:14;;;;;;;7.77;6.97;;;;;;;24.56;69.22;99616.56;4923998;29;20523;-80
2023/06/21 09:03:48;;;;;;;9.33;7.03;;;;;;;24.80;68.26;99621.59;4927142;29;20476;-80
2023/06/21 09:06:19;;;;;;;5.70;5.13;;;;;;;24.98;67.36;99625.72;4931753;29;20456;-81
2023/06/21 09:08:46;;;;;;;7.90;6.00;;;;;;;25.08;66.60;99634.31;4928916;29;20501;-80
2023/06/21 09:11:13;;;;;;;5.97;5.43;;;;;;;25.17;65.99;99649.34;4934700;29;20806;-80
2023/06/21 09:13:40;;;;;;;10.40;6.43;;;;;;;25.28;65.72;99640.75;4932942;29;20490;-81
2023/06/21 09:16:08;;;;;;;8.20;6.60;;;;;;;25.44;65.06;99649.56;4937246;29;20468;-80
2023/06/21 09:18:39;;;;;;;6.83;6.13;;;;;;;25.51;64.39;99645.09;4934728;29;20507;-80
2023/06/21 09:21:06;;;;;;;7.23;5.97;;;;;;;25.55;64.11;99652.59;4940130;29;20982;-80
2023/06/21 09:23:32;;;;;;;7.40;5.37;;;;;;;25.64;63.66;99647.88;4936698;29;20659;-80
2023/06/21 09:25:58;;;;;;;7.17;4.60;;;;;;;25.75;63.30;99649.22;4935722;29;20464;-80
2023/06/21 09:28:23;;;;;;;7.10;5.10;;;;;;;25.97;62.36;99652.72;4932717;29;20199;-81
2023/06/21 09:30:49;;;;;;;6.60;5.53;;;;;;;26.29;61.51;99650.44;4929518;29;20252;-81
2023/06/21 09:33:15;;;;;;;6.50;5.17;;;;;;;26.62;61.05;99651.44;4932091;29;20579;-80
2023/06/21 09:35:42;;;;;;;4.73;3.43;;;;;;;26.89;59.52;99648.84;4931842;29;20215;-81
2023/06/21 09:38:25;;;;;;;5.30;3.80;;;;;;;27.22;58.26;99650.84;4918298;29;22676;-80
2023/06/21 09:40:51;;;;;;;5.20;3.43;;;;;;;27.43;57.38;99641.72;4931338;29;20574;-81
2023/06/21 09:43:23;;;;;;;2.93;2.53;;;;;;;27.65;56.53;99639.66;4938194;29;20497;-81
2023/06/21 09:46:04;;;;;;;3.70;2.00;;;;;;;27.75;54.78;99648.19;4932249;29;20460;-81
2023/06/21 09:48:32;;;;;;;3.17;2.53;;;;;;;27.82;54.39;99648.22;4924915;29;20469;-80
2023/06/21 09:51:01;;;;;;;5.37;2.60;;;;;;;27.98;53.91;99645.91;4931798;29;20466;-80
2023/06/21 09:53:26;;;;;;;3.53;2.37;;;;;;;28.12;52.08;99645.88;4929656;28;20468;-80
2023/06/21 09:55:51;;;;;;;1.83;1.73;;;;;;;28.20;52.23;99653.75;4925699;29;20465;-79
2023/06/21 09:58:17;;;;;;;1.80;1.70;;;;;;;28.38;51.55;99655.78;4927460;29;20646;-79
2023/06/21 10:00:43;;;;;;;2.50;2.30;;;;;;;28.47;50.66;99653.72;4925243;29;20199;-79
2023/06/21 10:03:09;;;;;;;3.70;2.03;;;;;;;28.30;51.07;99654.16;4928721;29;20279;-80
2023/06/21 10:05:34;;;;;;;2.13;1.93;;;;;;;28.36;50.77;99658.72;4929818;29;20221;-80
2023/06/21 10:08:03;;;;;;;2.77;1.87;;;;;;;28.56;50.61;99660.53;4927749;29;20465;-81
2023/06/21 10:10:32;;;;;;;2.90;1.83;;;;;;;28.77;50.13;99662.94;4925868;29;20421;-80
2023/06/21 10:12:58;;;;;;;2.33;1.90;;;;;;;29.00;49.47;99667.84;4931691;29;21013;-81
2023/06/21 10:15:23;;;;;;;2.90;1.93;;;;;;;29.10;48.36;99662.78;4929208;29;20485;-82
2023/06/21 10:17:49;;;;;;;3.93;2.00;;;;;;;29.21;48.43;99663.97;4929245;29;20605;-79
2023/06/21 10:20:15;;;;;;;3.90;1.67;;;;;;;29.40;47.52;99672.19;4930775;29;20296;-80
2023/06/21 10:22:43;;;;;;;2.77;2.20;;;;;;;29.55;46.88;99661.88;4929273;29;20233;-80
2023/06/21 10:25:10;;;;;;;2.97;2.07;;;;;;;29.66;46.55;99669.31;4920077;29;20993;-79
2023/06/21 10:27:38;;;;;;;2.53;2.07;;;;;;;29.80;46.54;99655.66;4919296;29;20830;-81
2023/06/21 10:30:04;;;;;;;3.10;2.20;;;;;;;29.82;45.77;99661.69;4919255;29;20468;-81
2023/06/21 10:32:33;;;;;;;2.70;1.73;;;;;;;29.83;45.68;99641.69;4927827;29;20449;-79
2023/06/21 10:35:17;;;;;;;2.63;1.90;;;;;;;29.93;45.03;99652.84;4924309;29;20637;-80
2023/06/21 10:38:08;;;;;;;3.73;2.10;;;;;;;30.08;44.58;99650.59;4919668;29;20506;-81
2023/06/21 10:40:35;;;;;;;2.10;1.33;;;;;;;30.21;43.93;99636.91;4921715;29;20469;-81
2023/06/21 10:43:01;;;;;;;2.20;1.90;;;;;;;30.28;43.60;99631.47;4923970;29;20536;-81
2023/06/21 10:45:29;;;;;;;3.37;1.70;;;;;;;30.30;43.14;99645.63;4923333;29;20867;-81
2023/06/21 10:47:55;;;;;;;1.80;1.50;;;;;;;30.27;42.95;99646.03;4921026;29;20434;-82
2023/06/21 10:50:21;;;;;;;1.83;1.63;;;;;;;30.31;42.32;99652.69;4925711;29;20530;-79
2023/06/21 10:52:52;;;;;;;4.40;1.40;;;;;;;30.39;41.93;99651.56;4932501;28;20534;-81
2023/06/21 10:55:19;;;;;;;2.73;1.90;;;;;;;30.53;42.19;99644.91;4924338;29;20461;-81
2023/06/21 10:57:46;;;;;;;2.93;1.53;;;;;;;30.62;41.26;99656.28;4926360;29;20457;-80
2023/06/21 11:00:12;;;;;;;3.33;1.70;;;;;;;30.72;41.01;99645.72;4928477;29;20458;-81
2023/06/21 11:02:38;;;;;;;1.60;1.50;;;;;;;30.90;40.77;99639.47;4927373;28;20519;-81
2023/06/21 11:05:14;;;;;;;1.60;1.30;;;;;;;30.98;40.23;99627.47;4907832;29;20457;-81
2023/06/21 11:08:06;;;;;;;2.00;1.30;;;;;;;30.96;39.94;99627.69;4920066;29;20295;-81
2023/06/21 11:10:53;;;;;;;4.10;1.80;;;;;;;30.89;39.79;99626.94;4930995;29;20508;-81
2023/06/21 11:13:34;;;;;;;2.67;1.87;;;;;;;30.76;40.47;99624.38;4924000;29;20457;-80
2023/06/21 11:16:14;;;;;;;2.80;1.70;;;;;;;30.53;40.88;99625.94;4922782;29;21030;-81
2023/06/21 11:18:43;;;;;;;4.27;1.77;;;;;;;30.43;40.46;99622.94;4916946;29;20565;-79
2023/06/21 11:21:09;;;;;;;2.10;1.67;;;;;;;30.37;40.91;99621.97;4921503;29;20464;-79
2023/06/21 11:23:51;;;;;;;2.23;1.40;;;;;;;30.21;41.25;99617.94;4927839;29;20465;-80
2023/06/21 11:26:17;;;;;;;2.60;1.47;;;;;;;30.10;41.25;99626.81;4919044;29;20500;-80